createdAt,value
2023-05-03T00:01:57.121Z,15.57
2023-05-03T00:04:24.344Z,14.75
2023-05-03T00:06:51.580Z,15.55
2023-05-03T00:09:18.203Z,16.83
2023-05-03T00:11:44.734Z,16.45
2023-05-03T00:14:11.202Z,14.73
2023-05-03T00:16:37.721Z,15.88
2023-05-03T00:19:04.266Z,16.10
2023-05-03T00:21:31.745Z,16.98
2023-05-03T00:23:58.223Z,15.73
2023-05-03T00:26:24.826Z,15.82
2023-05-03T00:28:51.231Z,17.15
2023-05-03T00:31:17.764Z,18.48
2023-05-03T00:33:44.237Z,17.27
2023-05-03T00:36:14.525Z,17.25
2023-05-03T00:38:41.699Z,17.55
2023-05-03T00:41:09.789Z,18.83
2023-05-03T00:43:37.691Z,20.25
2023-05-03T00:46:15.899Z,20.00
2023-05-03T00:48:45.032Z,19.80
2023-05-03T00:51:13.130Z,19.48
2023-05-03T00:53:39.828Z,21.83
2023-05-03T00:56:06.986Z,20.88
2023-05-03T00:58:35.656Z,20.98
2023-05-03T01:01:02.393Z,19.73
2023-05-03T01:03:29.263Z,22.00
2023-05-03T01:06:21.929Z,21.42
2023-05-03T01:08:53.912Z,21.50
2023-05-03T01:11:23.924Z,22.35
2023-05-03T01:13:57.355Z,22.73
2023-05-03T01:16:23.809Z,22.77
2023-05-03T01:18:51.793Z,23.42
2023-05-03T01:21:18.676Z,24.48
2023-05-03T01:23:55.261Z,23.50
2023-05-03T01:26:22.831Z,23.77
2023-05-03T01:28:49.339Z,23.58
2023-05-03T01:31:19.279Z,22.60
2023-05-03T01:34:04.980Z,21.55
2023-05-03T01:36:34.585Z,21.17
2023-05-03T01:39:05.772Z,21.35
2023-05-03T01:41:32.856Z,21.52
2023-05-03T01:43:59.606Z,20.63
2023-05-03T01:46:26.092Z,21.92
2023-05-03T01:48:52.858Z,18.70
2023-05-03T01:51:19.341Z,18.05
2023-05-03T01:53:45.909Z,18.23
2023-05-03T01:56:12.342Z,17.58
2023-05-03T01:58:38.778Z,17.13
2023-05-03T02:01:07.136Z,18.73
2023-05-03T02:03:33.901Z,18.58
2023-05-03T02:06:00.714Z,19.08
2023-05-03T02:08:27.279Z,17.17
2023-05-03T02:10:53.742Z,17.60
2023-05-03T02:13:20.651Z,16.98
2023-05-03T02:15:47.206Z,17.42
2023-05-03T02:18:14.408Z,17.38
2023-05-03T02:20:44.419Z,17.00
2023-05-03T02:23:10.996Z,15.80
2023-05-03T02:25:37.491Z,16.88
2023-05-03T02:28:04.017Z,15.70
2023-05-03T02:30:30.482Z,14.85
2023-05-03T02:32:57.052Z,14.60
2023-05-03T02:35:23.574Z,14.73
2023-05-03T02:37:50.249Z,14.93
2023-05-03T02:40:16.767Z,15.02
2023-05-03T02:42:43.291Z,16.05
2023-05-03T02:45:09.939Z,15.23
2023-05-03T02:47:36.574Z,17.02
2023-05-03T02:50:03.420Z,15.73
2023-05-03T02:52:30.160Z,16.42
2023-05-03T02:54:56.650Z,17.20
2023-05-03T02:57:23.296Z,17.13
2023-05-03T02:59:49.771Z,16.15
2023-05-03T03:02:16.232Z,17.65
2023-05-03T03:04:42.809Z,17.42
2023-05-03T03:07:10.135Z,17.45
2023-05-03T03:09:36.624Z,17.58
2023-05-03T03:12:03.576Z,16.60
2023-05-03T03:14:30.337Z,17.80
2023-05-03T03:16:56.872Z,17.75
2023-05-03T03:19:23.403Z,18.52
2023-05-03T03:21:49.933Z,18.02
2023-05-03T03:24:16.366Z,19.05
2023-05-03T03:26:43.251Z,20.38
2023-05-03T03:29:09.981Z,19.30
2023-05-03T03:31:36.638Z,18.85
2023-05-03T03:34:03.224Z,19.35
2023-05-03T03:36:30.896Z,18.88
2023-05-03T03:38:58.911Z,19.75
2023-05-03T03:41:25.456Z,19.60
2023-05-03T03:43:52.056Z,15.25
2023-05-03T03:46:19.752Z,15.32
2023-05-03T03:48:46.592Z,13.80
2023-05-03T03:51:13.812Z,14.02
2023-05-03T03:53:40.400Z,13.57
2023-05-03T03:56:08.135Z,13.38
2023-05-03T03:58:34.662Z,12.45
2023-05-03T04:01:02.124Z,12.20
2023-05-03T04:03:28.710Z,13.20
2023-05-03T04:05:55.241Z,13.13
2023-05-03T04:08:21.779Z,12.63
2023-05-03T04:10:48.284Z,13.50
2023-05-03T04:13:14.781Z,13.63
2023-05-03T04:15:41.295Z,13.25
2023-05-03T04:18:08.846Z,14.50
2023-05-03T04:20:36.312Z,14.07
2023-05-03T04:23:02.823Z,14.48
2023-05-03T04:25:31.897Z,15.38
2023-05-03T04:27:58.793Z,15.57
2023-05-03T04:30:25.894Z,16.58
2023-05-03T04:32:55.461Z,15.25
2023-05-03T04:35:24.129Z,14.88
2023-05-03T04:37:50.711Z,14.10
2023-05-03T04:40:19.749Z,14.85
2023-05-03T04:42:46.262Z,14.52
2023-05-03T04:45:14.639Z,14.45
2023-05-03T04:47:41.226Z,13.45
2023-05-03T04:50:08.627Z,12.75
2023-05-03T04:52:35.548Z,12.13
2023-05-03T04:55:02.150Z,12.27
2023-05-03T04:57:28.725Z,11.93
2023-05-03T04:59:55.203Z,12.25
2023-05-03T05:02:21.978Z,12.30
2023-05-03T05:04:49.349Z,12.65
2023-05-03T05:07:16.174Z,13.32
2023-05-03T05:09:42.683Z,13.05
2023-05-03T05:12:09.386Z,12.45
2023-05-03T05:14:36.798Z,11.95
2023-05-03T05:17:03.888Z,11.75
2023-05-03T05:19:30.459Z,11.35
2023-05-03T05:21:56.974Z,10.45
2023-05-03T05:24:23.432Z,11.35
2023-05-03T05:26:49.970Z,11.15
2023-05-03T05:29:16.490Z,11.25
2023-05-03T05:31:43.041Z,10.73
2023-05-03T05:34:09.755Z,11.20
2023-05-03T05:36:36.305Z,10.20
2023-05-03T05:39:03.667Z,10.38
2023-05-03T05:41:30.138Z,9.90
2023-05-03T05:43:56.607Z,12.02
2023-05-03T05:46:23.221Z,11.05
2023-05-03T05:48:51.250Z,11.63
2023-05-03T05:51:17.808Z,11.07
2023-05-03T05:53:44.456Z,10.88
2023-05-03T05:56:11.576Z,11.27
2023-05-03T05:58:38.457Z,11.10
2023-05-03T06:01:05.546Z,11.80
2023-05-03T06:03:32.733Z,11.63
2023-05-03T06:05:59.214Z,12.32
2023-05-03T06:08:25.902Z,11.93
2023-05-03T06:10:53.186Z,11.38
2023-05-03T06:13:19.935Z,10.95
2023-05-03T06:15:46.554Z,11.13
2023-05-03T06:18:13.044Z,11.23
2023-05-03T06:20:40.038Z,11.02
2023-05-03T06:23:06.647Z,11.00
2023-05-03T06:25:33.222Z,11.05
2023-05-03T06:27:59.666Z,11.07
2023-05-03T06:30:27.350Z,12.45
2023-05-03T06:32:53.967Z,11.00
2023-05-03T06:35:21.828Z,12.65
2023-05-03T06:37:48.556Z,12.15
2023-05-03T06:40:15.993Z,12.25
2023-05-03T06:42:42.447Z,11.95
2023-05-03T06:45:09.215Z,12.15
2023-05-03T06:47:37.239Z,11.50
2023-05-03T06:50:06.811Z,12.38
2023-05-03T06:52:34.242Z,11.77
2023-05-03T06:55:01.389Z,12.80
2023-05-03T06:57:28.808Z,13.10
2023-05-03T06:59:55.627Z,12.32
2023-05-03T07:02:22.829Z,11.88
2023-05-03T07:04:49.568Z,12.90
2023-05-03T07:07:16.167Z,13.32
2023-05-03T07:09:43.929Z,14.02
2023-05-03T07:12:11.175Z,12.48
2023-05-03T07:14:38.507Z,11.43
2023-05-03T07:17:04.991Z,12.07
2023-05-03T07:19:32.044Z,10.73
2023-05-03T07:21:58.982Z,12.65
2023-05-03T07:24:26.126Z,12.23
2023-05-03T07:26:53.115Z,11.77
2023-05-03T07:29:19.583Z,11.82
2023-05-03T07:31:46.373Z,11.80
2023-05-03T07:34:13.062Z,10.95
2023-05-03T07:36:39.785Z,11.45
2023-05-03T07:39:06.353Z,11.07
2023-05-03T07:41:32.967Z,12.45
2023-05-03T07:43:59.428Z,12.45
2023-05-03T07:46:26.126Z,11.00
2023-05-03T07:48:52.677Z,11.68
2023-05-03T07:51:19.156Z,11.55
2023-05-03T07:53:45.740Z,12.45
2023-05-03T07:56:12.485Z,12.93
2023-05-03T07:58:40.456Z,11.35
2023-05-03T08:01:07.623Z,11.30
2023-05-03T08:03:34.464Z,11.63
2023-05-03T08:06:01.689Z,10.90
2023-05-03T08:08:28.439Z,10.60
2023-05-03T08:10:55.033Z,10.35
2023-05-03T08:13:22.727Z,11.38
2023-05-03T08:15:49.795Z,11.20
2023-05-03T08:18:16.636Z,11.57
2023-05-03T08:20:43.914Z,10.82
2023-05-03T08:23:11.232Z,11.45
2023-05-03T08:25:37.856Z,10.85
2023-05-03T08:28:04.575Z,10.82
2023-05-03T08:30:31.547Z,10.57
2023-05-03T08:32:58.290Z,10.75
2023-05-03T08:35:25.369Z,10.38
2023-05-03T08:37:51.879Z,9.95
2023-05-03T08:40:22.300Z,10.13
2023-05-03T08:42:50.115Z,10.27
2023-05-03T08:45:17.053Z,10.18
2023-05-03T08:47:46.747Z,10.18
2023-05-03T08:50:14.227Z,10.73
2023-05-03T08:52:42.642Z,10.27
2023-05-03T08:55:09.839Z,9.95
2023-05-03T08:57:36.633Z,9.90
2023-05-03T09:00:06.407Z,9.65
2023-05-03T09:02:39.041Z,8.85
2023-05-03T09:05:15.288Z,9.00
2023-05-03T09:08:05.314Z,9.10
2023-05-03T09:10:32.713Z,9.30
2023-05-03T09:13:02.517Z,9.15
2023-05-03T09:15:32.442Z,8.85
2023-05-03T09:18:11.523Z,7.80
2023-05-03T09:20:39.675Z,7.68
2023-05-03T09:23:09.853Z,8.10
2023-05-03T09:25:47.141Z,7.75
2023-05-03T09:28:15.651Z,7.38
2023-05-03T09:30:43.397Z,8.40
2023-05-03T09:33:11.520Z,7.35
2023-05-03T09:35:38.725Z,7.47
2023-05-03T09:38:06.109Z,7.85
2023-05-03T09:40:32.668Z,7.22
2023-05-03T09:43:07.255Z,7.57
2023-05-03T09:45:34.600Z,8.25
2023-05-03T09:48:04.977Z,8.75
2023-05-03T09:50:34.154Z,7.55
2023-05-03T09:53:04.594Z,8.20
2023-05-03T09:55:39.494Z,8.48
2023-05-03T09:58:06.852Z,8.38
2023-05-03T10:00:40.566Z,8.77
2023-05-03T10:03:12.295Z,8.80
2023-05-03T10:05:47.778Z,7.75
2023-05-03T10:08:20.066Z,8.00
2023-05-03T10:10:48.398Z,7.78
2023-05-03T10:13:15.139Z,8.38
2023-05-03T10:15:43.416Z,9.27
2023-05-03T10:18:13.462Z,9.90
2023-05-03T10:20:41.692Z,9.38
2023-05-03T10:23:10.849Z,9.00
2023-05-03T10:25:38.134Z,8.40
2023-05-03T10:28:06.042Z,8.85
2023-05-03T10:30:35.748Z,9.52
2023-05-03T10:33:11.576Z,8.32
2023-05-03T10:35:42.498Z,8.60
2023-05-03T10:38:15.651Z,11.27
2023-05-03T10:40:46.398Z,11.50
2023-05-03T10:43:34.133Z,9.77
2023-05-03T10:46:03.548Z,9.00
2023-05-03T10:48:30.754Z,11.73
2023-05-03T10:50:57.891Z,9.77
2023-05-03T10:53:40.830Z,8.85
2023-05-03T10:56:08.646Z,8.60
2023-05-03T10:58:36.331Z,8.55
2023-05-03T11:01:06.827Z,8.38
2023-05-03T11:03:45.699Z,11.07
2023-05-03T11:06:27.009Z,11.48
2023-05-03T11:08:53.641Z,9.93
2023-05-03T11:11:20.627Z,10.10
2023-05-03T11:13:47.680Z,10.40
2023-05-03T11:16:14.322Z,9.93
2023-05-03T11:18:41.258Z,9.82
2023-05-03T11:21:07.785Z,11.68
2023-05-03T11:23:34.305Z,11.65
2023-05-03T11:26:00.891Z,11.75
2023-05-03T11:28:27.395Z,12.60
2023-05-03T11:30:54.840Z,10.48
2023-05-03T11:33:21.344Z,10.32
2023-05-03T11:35:47.845Z,11.57
2023-05-03T11:38:14.370Z,12.15
2023-05-03T11:40:41.590Z,11.63
2023-05-03T11:43:08.183Z,12.15
2023-05-03T11:45:40.873Z,12.60
2023-05-03T11:48:07.800Z,12.23
2023-05-03T11:50:47.287Z,12.15
2023-05-03T11:53:14.347Z,11.68
2023-05-03T11:55:42.280Z,12.95
2023-05-03T11:58:18.582Z,12.27
2023-05-03T12:00:49.238Z,12.85
2023-05-03T12:03:26.894Z,11.98
2023-05-03T12:05:57.421Z,12.52
2023-05-03T12:08:31.925Z,11.70
2023-05-03T12:11:03.606Z,11.73
2023-05-03T12:13:34.190Z,11.48
2023-05-03T12:16:11.638Z,11.88
2023-05-03T12:18:50.446Z,10.57
2023-05-03T12:23:50.463Z,9.75
2023-05-03T12:26:19.152Z,11.38
2023-05-03T12:28:49.289Z,10.60
2023-05-03T12:31:18.301Z,11.32
2023-05-03T12:33:58.550Z,11.13
2023-05-03T12:36:37.469Z,8.52
2023-05-03T12:39:07.640Z,8.88
2023-05-03T12:42:05.521Z,8.38
2023-05-03T12:44:23.850Z,8.65
2023-05-03T12:46:52.943Z,8.93
2023-05-03T12:49:22.985Z,8.13
2023-05-03T12:52:05.416Z,10.10
2023-05-03T12:54:40.322Z,9.45
2023-05-03T12:57:13.793Z,9.65
2023-05-03T12:59:43.116Z,9.10
2023-05-03T13:04:57.694Z,9.98
2023-05-03T13:07:29.662Z,9.57
2023-05-03T13:12:27.645Z,8.93
2023-05-03T13:14:54.870Z,8.73
2023-05-03T13:17:22.549Z,8.57
2023-05-03T13:19:49.854Z,8.95
2023-05-03T13:22:16.970Z,8.95
2023-05-03T13:24:44.375Z,8.20
2023-05-03T13:27:11.616Z,8.23
2023-05-03T13:29:38.551Z,8.85
2023-05-03T13:32:05.300Z,9.00
2023-05-03T13:34:31.991Z,7.68
2023-05-03T13:36:58.900Z,8.38
2023-05-03T13:39:25.825Z,8.70
2023-05-03T13:41:52.354Z,8.02
2023-05-03T13:44:19.368Z,7.22
2023-05-03T13:46:46.282Z,9.30
2023-05-03T13:49:13.538Z,11.35
2023-05-03T13:51:40.018Z,8.98
2023-05-03T13:54:07.132Z,8.60
2023-05-03T13:56:34.374Z,10.60
2023-05-03T13:59:01.046Z,10.10
2023-05-03T14:01:28.419Z,10.02
2023-05-03T14:03:55.263Z,9.18
2023-05-03T14:06:23.542Z,10.05
2023-05-03T14:08:50.681Z,10.27
2023-05-03T14:11:17.973Z,10.00
2023-05-03T14:13:56.392Z,10.02
2023-05-03T14:16:39.258Z,10.10
2023-05-03T14:19:07.515Z,10.55
2023-05-03T14:21:34.398Z,10.63
2023-05-03T14:24:01.234Z,10.27
2023-05-03T14:26:29.379Z,9.25
2023-05-03T14:28:56.156Z,8.45
2023-05-03T14:31:22.772Z,7.72
2023-05-03T14:33:49.280Z,7.60
2023-05-03T14:36:15.941Z,7.05
2023-05-03T14:38:42.370Z,7.63
2023-05-03T14:41:09.347Z,8.05
2023-05-03T14:43:35.827Z,8.05
2023-05-03T14:46:02.368Z,8.13
2023-05-03T14:48:28.848Z,7.22
2023-05-03T14:50:56.394Z,7.55
2023-05-03T14:53:23.399Z,7.40
2023-05-03T14:55:50.126Z,6.75
2023-05-03T14:58:16.765Z,7.93
2023-05-03T15:00:43.555Z,7.75
2023-05-03T15:03:12.013Z,7.63
2023-05-03T15:05:42.595Z,7.97
2023-05-03T15:08:09.063Z,12.02
2023-05-03T15:10:38.027Z,12.85
2023-05-03T15:13:04.509Z,12.27
2023-05-03T15:15:30.980Z,12.13
2023-05-03T15:17:57.683Z,12.18
2023-05-03T15:20:24.309Z,14.27
2023-05-03T15:22:50.752Z,14.27
2023-05-03T15:25:17.270Z,15.15
2023-05-03T15:27:43.742Z,15.73
2023-05-03T15:30:12.278Z,15.10
2023-05-03T15:32:38.937Z,15.07
2023-05-03T15:35:05.979Z,16.30
2023-05-03T15:37:37.029Z,15.88
2023-05-03T15:40:04.833Z,15.50
2023-05-03T15:42:31.851Z,14.98
2023-05-03T15:44:58.452Z,15.23
2023-05-03T15:47:25.003Z,13.98
2023-05-03T15:49:51.529Z,15.13
2023-05-03T15:52:18.069Z,15.23
2023-05-03T15:54:44.523Z,15.32
2023-05-03T15:57:11.087Z,14.60
2023-05-03T15:59:38.042Z,14.48
2023-05-03T16:02:04.599Z,13.75
2023-05-03T16:04:31.254Z,15.50
2023-05-03T16:06:58.043Z,14.82
2023-05-03T16:09:24.562Z,13.98
2023-05-03T16:11:51.612Z,13.43
2023-05-03T16:14:18.098Z,13.68
2023-05-03T16:16:46.435Z,13.57
2023-05-03T16:19:13.948Z,14.40
2023-05-03T16:21:40.428Z,13.80
2023-05-03T16:24:07.451Z,13.50
2023-05-03T16:26:34.926Z,14.02
2023-05-03T16:29:01.458Z,14.13
2023-05-03T16:31:31.588Z,13.48
2023-05-03T16:33:58.114Z,13.70
2023-05-03T16:36:25.352Z,13.57
2023-05-03T16:38:51.847Z,13.50
2023-05-03T16:41:18.493Z,13.68
2023-05-03T16:43:45.738Z,14.05
2023-05-03T16:46:12.622Z,14.65
2023-05-03T16:48:39.180Z,14.82
2023-05-03T16:51:05.815Z,14.55
2023-05-03T16:53:32.569Z,13.60
2023-05-03T16:55:59.197Z,14.52
2023-05-03T16:58:25.679Z,14.52
2023-05-03T17:00:53.154Z,14.35
2023-05-03T17:03:19.913Z,15.65
2023-05-03T17:05:47.688Z,15.07
2023-05-03T17:08:15.444Z,15.65
2023-05-03T17:10:42.475Z,16.25
2023-05-03T17:13:09.379Z,16.20
2023-05-03T17:15:36.519Z,15.40
2023-05-03T17:18:05.095Z,14.73
2023-05-03T17:20:32.918Z,14.55
2023-05-03T17:22:59.419Z,14.50
2023-05-03T17:25:26.444Z,13.45
2023-05-03T17:27:53.007Z,14.32
2023-05-03T17:30:22.542Z,14.90
2023-05-03T17:32:49.038Z,13.63
2023-05-03T17:35:15.644Z,14.02
2023-05-03T17:37:42.125Z,15.30
2023-05-03T17:40:09.024Z,14.73
2023-05-03T17:42:35.612Z,15.43
2023-05-03T17:45:02.674Z,16.15
2023-05-03T17:47:29.469Z,15.77
2023-05-03T17:49:56.303Z,13.80
2023-05-03T17:52:23.033Z,12.50
2023-05-03T17:54:52.071Z,11.85
2023-05-03T17:57:20.609Z,13.63
2023-05-03T17:59:48.449Z,14.23
2023-05-03T18:02:15.354Z,14.20
2023-05-03T18:04:41.918Z,14.02
2023-05-03T18:07:08.408Z,13.10
2023-05-03T18:09:34.860Z,12.98
2023-05-03T18:12:01.947Z,14.27
2023-05-03T18:14:28.594Z,13.25
2023-05-03T18:16:55.320Z,12.95
2023-05-03T18:19:22.477Z,13.27
2023-05-03T18:21:48.929Z,12.93
2023-05-03T18:24:15.985Z,12.88
2023-05-03T18:26:42.598Z,13.18
2023-05-03T18:29:09.120Z,12.98
2023-05-03T18:31:36.540Z,12.55
2023-05-03T18:34:03.217Z,12.68
2023-05-03T18:36:29.824Z,12.63
2023-05-03T18:38:56.463Z,13.15
2023-05-03T18:41:23.079Z,13.43
2023-05-03T18:43:50.491Z,12.93
2023-05-03T18:46:18.484Z,14.07
2023-05-03T18:48:45.366Z,13.82
2023-05-03T18:51:11.858Z,13.55
2023-05-03T18:53:38.344Z,13.20
2023-05-03T18:56:05.050Z,12.93
2023-05-03T18:58:31.837Z,13.05
2023-05-03T19:01:01.417Z,12.88
2023-05-03T19:03:31.331Z,11.80
2023-05-03T19:06:03.646Z,10.80
2023-05-03T19:08:30.562Z,10.20
2023-05-03T19:10:57.430Z,9.75
2023-05-03T19:13:25.427Z,9.40
2023-05-03T19:15:51.868Z,10.30
2023-05-03T19:18:18.410Z,9.18
2023-05-03T19:20:44.949Z,10.75
2023-05-03T19:23:11.438Z,10.10
2023-05-03T19:25:38.060Z,9.52
2023-05-03T19:28:06.721Z,9.57
2023-05-03T19:30:33.355Z,8.57
2023-05-03T19:32:59.966Z,8.07
2023-05-03T19:35:26.596Z,7.53
2023-05-03T19:37:53.045Z,7.07
2023-05-03T19:40:19.556Z,8.07
2023-05-03T19:42:46.293Z,6.70
2023-05-03T19:45:12.853Z,7.22
2023-05-03T19:47:39.391Z,6.97
2023-05-03T19:50:06.304Z,7.30
2023-05-03T19:52:32.906Z,6.95
2023-05-03T19:54:59.371Z,6.82
2023-05-03T19:57:25.959Z,6.70
2023-05-03T19:59:52.495Z,6.30
2023-05-03T20:02:20.595Z,6.40
2023-05-03T20:04:48.159Z,8.45
2023-05-03T20:07:14.552Z,7.95
2023-05-03T20:09:41.168Z,13.32
2023-05-03T20:12:07.683Z,24.75
2023-05-03T20:14:34.191Z,13.68
2023-05-03T20:17:00.648Z,12.43
2023-05-03T20:19:27.311Z,9.25
2023-05-03T20:21:53.832Z,8.15
2023-05-03T20:24:20.690Z,7.03
2023-05-03T20:26:47.299Z,7.22
2023-05-03T20:29:13.758Z,7.63
2023-05-03T20:31:40.278Z,7.40
2023-05-03T20:34:07.133Z,8.20
2023-05-03T20:36:33.682Z,10.38
2023-05-03T20:39:00.315Z,8.95
2023-05-03T20:41:26.821Z,8.32
2023-05-03T20:43:54.889Z,8.75
2023-05-03T20:46:21.445Z,9.30
2023-05-03T20:48:48.043Z,9.00
2023-05-03T20:51:14.933Z,7.50
2023-05-03T20:53:41.497Z,7.45
2023-05-03T20:56:08.145Z,7.00
2023-05-03T20:58:34.873Z,7.07
2023-05-03T21:01:04.085Z,6.85
2023-05-03T21:03:31.784Z,6.88
2023-05-03T21:05:58.510Z,6.72
2023-05-03T21:08:25.130Z,6.65
2023-05-03T21:10:51.798Z,6.70
2023-05-03T21:13:18.366Z,6.38
2023-05-03T21:15:44.866Z,6.70
2023-05-03T21:18:11.523Z,6.93
2023-05-03T21:20:38.266Z,7.15
2023-05-03T21:23:05.192Z,6.70
2023-05-03T21:25:31.808Z,7.47
2023-05-03T21:27:58.299Z,7.03
2023-05-03T21:30:24.827Z,7.03
2023-05-03T21:32:51.440Z,7.35
2023-05-03T21:35:18.346Z,7.32
2023-05-03T21:37:48.964Z,7.07
2023-05-03T21:40:15.736Z,6.18
2023-05-03T21:42:42.685Z,6.70
2023-05-03T21:45:09.594Z,6.55
2023-05-03T21:47:36.161Z,6.07
2023-05-03T21:50:03.557Z,7.13
2023-05-03T21:52:30.269Z,7.55
2023-05-03T21:54:56.777Z,7.30
2023-05-03T21:57:23.234Z,7.10
2023-05-03T21:59:49.747Z,6.88
2023-05-03T22:02:16.202Z,6.35
2023-05-03T22:04:43.527Z,6.43
2023-05-03T22:07:10.051Z,6.43
2023-05-03T22:09:36.619Z,7.13
2023-05-03T22:12:19.155Z,7.32
2023-05-03T22:14:49.775Z,7.13
2023-05-03T22:17:16.577Z,7.45
2023-05-03T22:19:43.093Z,6.45
2023-05-03T22:22:09.585Z,6.82
2023-05-03T22:24:36.072Z,6.85
2023-05-03T22:27:02.898Z,7.15
2023-05-03T22:29:29.474Z,6.90
2023-05-03T22:31:56.375Z,6.57
2023-05-03T22:34:23.148Z,7.30
2023-05-03T22:36:49.581Z,6.70
2023-05-03T22:39:17.412Z,6.57
2023-05-03T22:41:44.272Z,7.55
2023-05-03T22:44:10.870Z,7.03
2023-05-03T22:46:37.405Z,6.75
2023-05-03T22:49:04.096Z,6.75
2023-05-03T22:51:31.803Z,6.75
2023-05-03T22:53:58.288Z,6.13
2023-05-03T22:56:24.786Z,7.00
2023-05-03T22:58:51.336Z,7.18
2023-05-03T23:01:18.173Z,6.60
2023-05-03T23:03:44.888Z,8.10
2023-05-03T23:06:11.515Z,8.40
2023-05-03T23:08:38.462Z,8.32
2023-05-03T23:11:05.221Z,7.85
2023-05-03T23:13:31.741Z,7.90
2023-05-03T23:15:58.384Z,7.40
2023-05-03T23:18:24.960Z,7.78
2023-05-03T23:20:51.495Z,6.40
2023-05-03T23:23:17.961Z,6.55
2023-05-03T23:25:44.572Z,6.00
2023-05-03T23:28:11.794Z,6.60
2023-05-03T23:30:42.391Z,6.55
2023-05-03T23:33:09.549Z,6.22
2023-05-03T23:35:36.849Z,7.05
2023-05-03T23:38:03.773Z,6.18
2023-05-03T23:40:30.276Z,6.53
2023-05-03T23:42:57.125Z,7.10
2023-05-03T23:45:23.615Z,7.60
2023-05-03T23:47:50.151Z,6.95
2023-05-03T23:50:16.704Z,7.18
2023-05-03T23:52:43.198Z,7.68
2023-05-03T23:55:10.347Z,6.63
2023-05-03T23:57:37.065Z,7.25
